createdAt,value
2022-10-13T00:01:33.405Z,99.90
2022-10-13T00:04:02.083Z,99.90
2022-10-13T00:06:31.806Z,99.90
2022-10-13T00:09:01.795Z,99.90
2022-10-13T00:11:32.027Z,99.90
2022-10-13T00:14:02.866Z,99.90
2022-10-13T00:16:33.781Z,99.90
2022-10-13T00:19:02.593Z,99.90
2022-10-13T00:21:31.549Z,99.90
2022-10-13T00:24:01.831Z,99.90
2022-10-13T00:26:30.639Z,99.90
2022-10-13T00:28:59.720Z,99.90
2022-10-13T00:31:31.840Z,99.90
2022-10-13T00:34:01.881Z,99.90
2022-10-13T00:36:31.301Z,99.90
2022-10-13T00:39:01.449Z,99.90
2022-10-13T00:41:30.176Z,99.90
2022-10-13T00:44:00.933Z,99.90
2022-10-13T00:46:31.860Z,99.90
2022-10-13T00:49:04.641Z,99.90
2022-10-13T00:51:37.245Z,99.90
2022-10-13T00:54:10.600Z,99.90
2022-10-13T00:56:43.035Z,99.90
2022-10-13T00:59:23.166Z,99.90
2022-10-13T01:01:52.657Z,99.90
2022-10-13T01:04:24.808Z,99.90
2022-10-13T01:06:54.294Z,99.90
2022-10-13T01:09:24.543Z,99.90
2022-10-13T01:12:05.504Z,99.90
2022-10-13T01:14:39.817Z,99.90
2022-10-13T01:17:16.981Z,99.90
2022-10-13T01:20:38.836Z,99.90
2022-10-13T01:23:27.571Z,99.90
2022-10-13T01:26:19.706Z,99.90
2022-10-13T01:29:07.344Z,99.90
2022-10-13T01:31:46.444Z,99.90
2022-10-13T01:34:20.876Z,99.90
2022-10-13T01:36:56.664Z,99.90
2022-10-13T01:39:37.398Z,99.90
2022-10-13T01:42:15.884Z,99.90
2022-10-13T01:44:49.852Z,99.90
2022-10-13T01:47:21.832Z,99.90
2022-10-13T01:49:54.197Z,99.90
2022-10-13T01:52:26.910Z,99.90
2022-10-13T01:54:56.354Z,99.90
2022-10-13T01:57:32.832Z,99.90
2022-10-13T02:00:04.142Z,99.90
2022-10-13T02:02:49.201Z,99.90
2022-10-13T02:05:27.471Z,99.90
2022-10-13T02:08:00.756Z,99.90
2022-10-13T02:10:37.841Z,99.90
2022-10-13T02:13:08.698Z,99.90
2022-10-13T02:15:41.276Z,99.90
2022-10-13T02:18:14.732Z,99.90
2022-10-13T02:20:44.702Z,99.90
2022-10-13T02:23:16.599Z,99.90
2022-10-13T02:25:45.876Z,99.90
2022-10-13T02:28:15.797Z,99.90
2022-10-13T02:30:45.925Z,99.90
2022-10-13T02:33:17.060Z,99.90
2022-10-13T02:35:46.157Z,99.90
2022-10-13T02:38:14.961Z,99.90
2022-10-13T02:40:43.849Z,99.90
2022-10-13T02:43:12.647Z,99.90
2022-10-13T02:45:41.412Z,99.90
2022-10-13T02:48:10.314Z,99.90
2022-10-13T02:50:40.577Z,99.90
2022-10-13T02:53:09.454Z,99.90
2022-10-13T02:55:38.365Z,99.90
2022-10-13T02:58:07.248Z,99.90
2022-10-13T03:00:36.096Z,99.90
2022-10-13T03:03:04.943Z,99.90
2022-10-13T03:05:33.991Z,99.90
2022-10-13T03:08:04.374Z,99.90
2022-10-13T03:10:33.328Z,99.90
2022-10-13T03:13:02.291Z,99.90
2022-10-13T03:15:31.165Z,99.90
2022-10-13T03:18:01.133Z,99.90
2022-10-13T03:20:29.866Z,99.90
2022-10-13T03:22:58.741Z,99.90
2022-10-13T03:25:30.447Z,99.90
2022-10-13T03:27:59.247Z,99.90
2022-10-13T03:30:28.064Z,99.90
2022-10-13T03:32:56.830Z,99.90
2022-10-13T03:35:25.525Z,99.90
2022-10-13T03:37:55.348Z,99.90
2022-10-13T03:40:26.844Z,99.90
2022-10-13T03:42:57.144Z,99.90
2022-10-13T03:45:26.231Z,99.90
2022-10-13T03:47:55.220Z,99.90
2022-10-13T03:50:24.274Z,99.90
2022-10-13T03:52:53.020Z,99.90
2022-10-13T03:55:21.906Z,99.90
2022-10-13T03:57:50.699Z,99.90
2022-10-13T04:00:21.449Z,99.90
2022-10-13T04:02:51.820Z,99.90
2022-10-13T04:05:20.638Z,99.90
2022-10-13T04:07:49.432Z,99.90
2022-10-13T04:10:20.435Z,99.90
2022-10-13T04:12:51.333Z,99.90
2022-10-13T04:15:21.799Z,99.90
2022-10-13T04:17:50.669Z,99.90
2022-10-13T04:20:19.723Z,99.90
2022-10-13T04:22:48.585Z,99.90
2022-10-13T04:25:17.477Z,99.90
2022-10-13T04:27:48.320Z,99.90
2022-10-13T04:30:17.265Z,99.90
2022-10-13T04:32:47.561Z,99.90
2022-10-13T04:35:17.096Z,99.90
2022-10-13T04:37:45.850Z,99.90
2022-10-13T04:40:15.596Z,99.90
2022-10-13T04:42:44.401Z,99.90
2022-10-13T04:45:13.292Z,99.90
2022-10-13T04:47:43.772Z,99.90
2022-10-13T04:50:14.190Z,99.90
2022-10-13T04:52:43.072Z,94.00
2022-10-13T04:55:12.062Z,84.50
2022-10-13T04:57:40.873Z,76.60
2022-10-13T05:00:10.743Z,66.70
2022-10-13T05:02:39.929Z,58.40
2022-10-13T05:05:09.575Z,45.30
2022-10-13T05:07:39.872Z,38.00
2022-10-13T05:10:09.164Z,36.90
2022-10-13T05:12:38.195Z,41.70
2022-10-13T05:15:08.012Z,41.20
2022-10-13T05:17:36.756Z,41.60
2022-10-13T05:20:11.464Z,43.70
2022-10-13T05:22:41.735Z,43.00
2022-10-13T05:25:10.805Z,43.30
2022-10-13T05:27:39.620Z,43.50
2022-10-13T05:30:12.438Z,38.40
2022-10-13T05:32:41.340Z,34.50
2022-10-13T05:35:11.162Z,30.90
2022-10-13T05:37:44.027Z,22.40
2022-10-13T05:40:13.501Z,20.10
2022-10-13T05:42:42.459Z,22.60
2022-10-13T05:45:13.006Z,24.10
2022-10-13T05:47:41.791Z,22.20
2022-10-13T05:50:10.926Z,21.20
2022-10-13T05:52:44.978Z,19.00
2022-10-13T05:55:15.963Z,18.00
2022-10-13T05:57:48.146Z,13.80
2022-10-13T06:00:19.279Z,2.80
2022-10-13T06:02:53.339Z,1.00
2022-10-13T06:05:24.376Z,1.00
2022-10-13T06:07:56.557Z,1.00
2022-10-13T06:10:26.543Z,1.00
2022-10-13T06:12:55.851Z,1.00
2022-10-13T06:15:28.151Z,1.00
2022-10-13T06:17:58.476Z,1.00
2022-10-13T06:20:27.799Z,1.00
2022-10-13T06:22:58.559Z,1.00
2022-10-13T06:25:29.222Z,1.00
2022-10-13T06:28:00.211Z,1.00
2022-10-13T06:30:29.994Z,1.00
2022-10-13T06:32:58.902Z,1.00
2022-10-13T06:35:27.687Z,1.00
2022-10-13T06:37:58.910Z,1.00
2022-10-13T06:40:27.717Z,1.00
2022-10-13T06:42:56.756Z,1.00
2022-10-13T06:45:25.757Z,1.00
2022-10-13T06:47:55.291Z,1.00
2022-10-13T06:50:24.571Z,1.00
2022-10-13T06:52:53.492Z,1.00
2022-10-13T06:55:24.002Z,1.00
2022-10-13T06:57:52.955Z,1.00
2022-10-13T07:00:22.584Z,1.00
2022-10-13T07:02:52.960Z,1.00
2022-10-13T07:05:21.750Z,1.00
2022-10-13T07:07:54.247Z,1.00
2022-10-13T07:10:24.693Z,1.00
2022-10-13T07:12:53.528Z,1.00
2022-10-13T07:15:24.854Z,99.90
2022-10-13T07:17:55.219Z,99.90
2022-10-13T07:20:24.702Z,99.90
2022-10-13T07:22:55.661Z,1.00
2022-10-13T07:25:27.887Z,1.00
2022-10-13T07:27:56.693Z,1.00
2022-10-13T07:30:25.467Z,1.00
2022-10-13T07:32:54.435Z,1.00
2022-10-13T07:35:30.273Z,1.00
2022-10-13T07:38:00.099Z,99.90
2022-10-13T07:40:30.457Z,1.00
2022-10-13T07:42:59.643Z,1.00
2022-10-13T07:45:28.728Z,1.00
2022-10-13T07:47:58.442Z,1.00
2022-10-13T07:50:27.402Z,1.00
2022-10-13T07:52:56.124Z,1.00
2022-10-13T07:55:24.984Z,1.00
2022-10-13T07:57:57.791Z,1.00
2022-10-13T08:00:26.715Z,1.00
2022-10-13T08:02:55.677Z,1.00
2022-10-13T08:05:24.903Z,81.20
2022-10-13T08:07:56.026Z,99.90
2022-10-13T08:10:29.634Z,94.50
2022-10-13T08:13:00.399Z,26.80
2022-10-13T08:15:29.564Z,1.00
2022-10-13T08:17:58.444Z,1.00
2022-10-13T08:20:36.221Z,99.90
2022-10-13T08:23:12.915Z,99.90
2022-10-13T08:25:46.321Z,99.90
2022-10-13T08:28:20.549Z,1.00
2022-10-13T08:30:50.707Z,1.00
2022-10-13T08:33:19.761Z,11.00
2022-10-13T08:35:48.772Z,72.50
2022-10-13T08:38:17.765Z,99.90
2022-10-13T08:40:50.183Z,99.90
2022-10-13T08:43:23.390Z,1.00
2022-10-13T08:45:54.500Z,1.00
2022-10-13T08:48:27.724Z,1.00
2022-10-13T08:51:01.222Z,99.90
2022-10-13T08:53:32.112Z,99.90
2022-10-13T08:56:03.746Z,99.90
2022-10-13T08:58:37.496Z,99.90
2022-10-13T09:01:16.861Z,1.00
2022-10-13T09:03:54.557Z,99.90
2022-10-13T09:06:28.836Z,99.90
2022-10-13T09:08:59.895Z,23.10
2022-10-13T09:11:30.668Z,1.00
2022-10-13T09:14:03.773Z,1.00
2022-10-13T09:16:37.588Z,1.00
2022-10-13T09:19:24.609Z,1.00
2022-10-13T09:21:56.020Z,99.90
2022-10-13T09:24:26.823Z,99.90
2022-10-13T09:27:06.465Z,1.00
2022-10-13T09:29:38.794Z,11.60
2022-10-13T09:32:19.436Z,99.90
2022-10-13T09:34:49.763Z,97.70
2022-10-13T09:37:21.401Z,1.00
2022-10-13T09:40:03.145Z,1.00
2022-10-13T09:42:33.259Z,1.00
2022-10-13T09:45:16.022Z,1.00
2022-10-13T09:47:53.552Z,1.00
2022-10-13T09:50:25.949Z,1.00
2022-10-13T09:53:10.889Z,1.00
2022-10-13T09:55:39.707Z,17.90
2022-10-13T09:58:16.025Z,1.00
2022-10-13T10:00:47.646Z,1.00
2022-10-13T10:03:21.422Z,1.00
2022-10-13T10:05:53.935Z,99.90
2022-10-13T10:08:33.896Z,99.90
2022-10-13T10:11:16.935Z,99.90
2022-10-13T10:13:46.021Z,11.80
2022-10-13T10:16:23.108Z,99.90
2022-10-13T10:18:59.186Z,99.90
2022-10-13T10:21:36.366Z,1.00
2022-10-13T10:24:15.730Z,1.00
2022-10-13T10:26:55.440Z,99.90
2022-10-13T10:29:30.970Z,1.00
2022-10-13T10:32:10.725Z,1.00
2022-10-13T10:34:47.809Z,99.90
2022-10-13T10:37:25.189Z,99.90
2022-10-13T10:40:05.053Z,1.00
2022-10-13T10:42:53.080Z,1.00
2022-10-13T10:45:26.232Z,1.00
2022-10-13T10:48:01.548Z,1.00
2022-10-13T10:50:31.886Z,1.00
2022-10-13T10:53:05.646Z,1.00
2022-10-13T10:55:39.883Z,1.00
2022-10-13T10:58:21.577Z,1.00
2022-10-13T11:00:57.010Z,1.00
2022-10-13T11:03:39.944Z,99.90
2022-10-13T11:06:26.295Z,99.90
2022-10-13T11:08:56.027Z,99.90
2022-10-13T11:11:41.710Z,99.90
2022-10-13T11:14:28.447Z,99.90
2022-10-13T11:17:19.239Z,99.90
2022-10-13T11:19:50.624Z,99.90
2022-10-13T11:22:22.930Z,99.90
2022-10-13T11:25:01.238Z,99.90
2022-10-13T11:27:44.134Z,99.90
2022-10-13T11:30:50.507Z,99.90
2022-10-13T11:33:38.063Z,46.30
2022-10-13T11:36:37.253Z,1.40
2022-10-13T11:39:50.886Z,1.00
2022-10-13T11:42:38.920Z,1.00
2022-10-13T11:45:21.034Z,1.00
2022-10-13T11:48:06.891Z,1.00
2022-10-13T11:50:42.246Z,1.00
2022-10-13T11:53:19.375Z,1.00
2022-10-13T11:55:51.875Z,1.00
2022-10-13T11:58:22.712Z,1.00
2022-10-13T12:01:00.150Z,1.00
2022-10-13T12:03:31.777Z,1.00
2022-10-13T12:06:03.750Z,1.00
2022-10-13T12:08:36.277Z,1.00
2022-10-13T12:11:07.830Z,19.60
2022-10-13T12:13:38.276Z,73.10
2022-10-13T12:16:08.505Z,99.90
2022-10-13T12:18:39.233Z,99.90
2022-10-13T12:21:13.019Z,99.90
2022-10-13T12:23:43.795Z,99.90
2022-10-13T12:26:17.799Z,99.90
2022-10-13T12:28:53.382Z,99.90
2022-10-13T12:31:25.416Z,99.90
2022-10-13T12:33:56.082Z,99.90
2022-10-13T12:36:30.310Z,99.90
2022-10-13T12:39:06.474Z,99.90
2022-10-13T12:41:37.648Z,99.90
2022-10-13T12:44:09.087Z,99.90
2022-10-13T12:46:39.625Z,99.90
2022-10-13T12:49:13.644Z,99.90
2022-10-13T12:51:44.330Z,1.00
2022-10-13T12:54:23.819Z,99.90
2022-10-13T12:56:56.433Z,99.90
2022-10-13T12:59:26.964Z,99.90
2022-10-13T13:01:59.193Z,99.90
2022-10-13T13:04:42.397Z,99.90
2022-10-13T13:07:36.960Z,99.90
2022-10-13T13:10:19.523Z,99.90
2022-10-13T13:12:49.001Z,99.90
2022-10-13T13:15:38.537Z,99.90
2022-10-13T13:18:36.412Z,99.90
2022-10-13T13:21:07.862Z,99.90
2022-10-13T13:23:36.783Z,99.90
2022-10-13T13:26:14.400Z,99.90
2022-10-13T13:28:46.927Z,99.90
2022-10-13T13:31:16.901Z,99.90
2022-10-13T13:33:45.864Z,99.90
2022-10-13T13:36:18.100Z,99.90
2022-10-13T13:38:48.341Z,99.90
2022-10-13T13:41:19.389Z,99.90
2022-10-13T13:43:48.561Z,99.90
2022-10-13T13:46:20.927Z,63.30
2022-10-13T13:48:50.016Z,3.30
2022-10-13T13:51:19.157Z,12.70
2022-10-13T13:53:48.723Z,17.10
2022-10-13T13:56:21.951Z,64.00
2022-10-13T13:58:50.696Z,99.90
2022-10-13T14:01:19.375Z,99.90
2022-10-13T14:03:47.995Z,99.90
2022-10-13T14:06:21.534Z,99.90
2022-10-13T14:08:51.617Z,99.90
2022-10-13T14:11:21.965Z,99.90
2022-10-13T14:13:50.670Z,99.90
2022-10-13T14:16:29.455Z,99.90
2022-10-13T14:18:58.405Z,99.90
2022-10-13T14:21:32.566Z,99.90
2022-10-13T14:24:02.939Z,99.90
2022-10-13T14:26:33.117Z,99.90
2022-10-13T14:29:01.851Z,99.90
2022-10-13T14:31:30.778Z,99.90
2022-10-13T14:33:59.547Z,99.90
2022-10-13T14:36:29.500Z,1.00
2022-10-13T14:38:58.286Z,1.00
2022-10-13T14:41:27.119Z,1.00
2022-10-13T14:43:58.305Z,1.00
2022-10-13T14:46:27.089Z,1.00
2022-10-13T14:48:58.060Z,1.00
2022-10-13T14:51:27.250Z,5.90
2022-10-13T14:53:56.536Z,99.90
2022-10-13T14:56:27.325Z,99.90
2022-10-13T14:58:59.446Z,99.90
2022-10-13T15:01:34.034Z,1.00
2022-10-13T15:04:03.322Z,1.00
2022-10-13T15:06:33.344Z,1.00
2022-10-13T15:09:02.201Z,1.00
2022-10-13T15:11:31.033Z,1.00
2022-10-13T15:14:01.434Z,1.00
2022-10-13T15:16:33.503Z,1.00
2022-10-13T15:19:02.710Z,1.00
2022-10-13T15:21:31.329Z,1.00
2022-10-13T15:24:01.557Z,1.00
2022-10-13T15:26:30.304Z,1.00
2022-10-13T15:29:00.646Z,1.00
2022-10-13T15:31:31.093Z,1.00
2022-10-13T15:33:59.704Z,1.00
2022-10-13T15:36:28.456Z,1.00
2022-10-13T15:38:57.125Z,1.00
2022-10-13T15:41:25.851Z,1.00
2022-10-13T15:43:54.622Z,1.00
2022-10-13T15:46:26.340Z,1.00
2022-10-13T15:48:55.858Z,99.90
2022-10-13T15:51:27.145Z,99.90
2022-10-13T15:53:56.592Z,99.90
2022-10-13T15:56:25.330Z,99.90
2022-10-13T15:58:54.123Z,99.90
2022-10-13T16:01:24.316Z,1.00
2022-10-13T16:03:55.434Z,1.00
2022-10-13T16:06:24.951Z,99.90
2022-10-13T16:08:53.906Z,99.90
2022-10-13T16:11:24.345Z,99.90
2022-10-13T16:13:53.783Z,1.00
2022-10-13T16:16:23.421Z,1.00
2022-10-13T16:18:53.418Z,23.20
2022-10-13T16:21:26.035Z,99.90
2022-10-13T16:23:54.760Z,99.90
2022-10-13T16:26:23.568Z,99.90
2022-10-13T16:28:56.772Z,1.00
2022-10-13T16:31:25.773Z,1.00
2022-10-13T16:33:56.387Z,1.00
2022-10-13T16:36:25.608Z,99.90
2022-10-13T16:38:55.846Z,99.90
2022-10-13T16:41:25.928Z,1.00
2022-10-13T16:43:54.690Z,1.00
2022-10-13T16:46:23.456Z,83.80
2022-10-13T16:48:52.357Z,1.00
2022-10-13T16:51:24.996Z,1.00
2022-10-13T16:53:58.718Z,99.90
2022-10-13T16:56:32.276Z,99.90
2022-10-13T16:59:02.477Z,1.00
2022-10-13T17:01:32.694Z,1.00
2022-10-13T17:04:02.071Z,17.70
2022-10-13T17:06:32.308Z,99.90
2022-10-13T17:09:03.048Z,1.00
2022-10-13T17:11:33.506Z,1.00
2022-10-13T17:14:03.312Z,99.90
2022-10-13T17:16:33.986Z,1.00
2022-10-13T17:19:02.754Z,1.00
2022-10-13T17:21:41.945Z,11.00
2022-10-13T17:24:11.086Z,99.90
2022-10-13T17:26:39.802Z,99.90
2022-10-13T17:29:08.453Z,99.90
2022-10-13T17:31:37.590Z,99.90
2022-10-13T17:34:06.419Z,1.00
2022-10-13T17:36:35.268Z,1.00
2022-10-13T17:39:12.414Z,1.00
2022-10-13T17:41:41.643Z,99.90
2022-10-13T17:44:11.074Z,99.90
2022-10-13T17:46:40.685Z,99.90
2022-10-13T17:49:12.556Z,99.90
2022-10-13T17:51:41.971Z,1.00
2022-10-13T17:54:15.969Z,1.00
2022-10-13T17:56:45.630Z,1.00
2022-10-13T17:59:14.664Z,1.00
2022-10-13T18:01:43.828Z,1.00
2022-10-13T18:04:14.562Z,1.00
2022-10-13T18:06:44.939Z,68.70
2022-10-13T18:09:19.323Z,99.90
2022-10-13T18:11:51.096Z,85.00
2022-10-13T18:14:21.180Z,99.90
2022-10-13T18:16:50.698Z,98.60
2022-10-13T18:19:19.591Z,99.90
2022-10-13T18:21:49.391Z,99.90
2022-10-13T18:24:19.413Z,99.90
2022-10-13T18:26:48.472Z,99.90
2022-10-13T18:29:17.218Z,99.90
2022-10-13T18:31:46.046Z,99.90
2022-10-13T18:34:17.114Z,99.90
2022-10-13T18:36:47.841Z,99.90
2022-10-13T18:39:19.538Z,99.90
2022-10-13T18:41:50.720Z,99.90
2022-10-13T18:44:20.024Z,99.90
2022-10-13T18:46:51.205Z,99.90
2022-10-13T18:49:23.311Z,99.90
2022-10-13T18:51:52.558Z,99.90
2022-10-13T18:54:22.911Z,99.90
2022-10-13T18:56:51.504Z,99.90
2022-10-13T18:59:20.608Z,99.90
2022-10-13T19:01:50.148Z,99.90
2022-10-13T19:04:18.848Z,99.90
2022-10-13T19:06:47.694Z,99.90
2022-10-13T19:09:18.186Z,99.90
2022-10-13T19:11:48.593Z,99.90
2022-10-13T19:14:18.128Z,99.90
2022-10-13T19:16:46.915Z,1.00
2022-10-13T19:19:16.026Z,1.00
2022-10-13T19:21:44.620Z,1.00
2022-10-13T19:24:13.516Z,1.00
2022-10-13T19:26:42.409Z,1.00
2022-10-13T19:29:15.857Z,1.00
2022-10-13T19:31:45.010Z,1.00
2022-10-13T19:34:14.713Z,1.00
2022-10-13T19:36:45.814Z,1.00
2022-10-13T19:39:17.400Z,1.00
2022-10-13T19:41:47.531Z,1.00
2022-10-13T19:44:19.457Z,1.00
2022-10-13T19:46:49.461Z,1.00
2022-10-13T19:49:21.248Z,1.00
2022-10-13T19:51:50.353Z,1.00
2022-10-13T19:54:21.259Z,1.00
2022-10-13T19:56:51.082Z,1.00
2022-10-13T19:59:21.791Z,1.00
2022-10-13T20:01:50.568Z,1.00
2022-10-13T20:04:20.628Z,1.00
2022-10-13T20:06:49.528Z,1.00
2022-10-13T20:09:18.903Z,1.00
2022-10-13T20:11:48.040Z,1.00
2022-10-13T20:14:17.651Z,1.00
2022-10-13T20:16:47.902Z,1.00
2022-10-13T20:19:19.844Z,1.00
2022-10-13T20:21:51.943Z,1.00
2022-10-13T20:24:21.816Z,1.00
2022-10-13T20:26:50.933Z,1.00
2022-10-13T20:29:23.854Z,1.00
2022-10-13T20:31:53.809Z,1.00
2022-10-13T20:34:22.390Z,1.00
2022-10-13T20:36:52.217Z,1.00
2022-10-13T20:39:20.869Z,1.00
2022-10-13T20:41:49.510Z,1.00
2022-10-13T20:44:19.426Z,1.00
2022-10-13T20:46:48.104Z,1.00
2022-10-13T20:49:18.326Z,1.00
2022-10-13T20:51:47.056Z,1.00
2022-10-13T20:54:17.191Z,1.00
2022-10-13T20:56:47.254Z,1.00
2022-10-13T20:59:16.216Z,1.00
2022-10-13T21:01:45.353Z,1.00
2022-10-13T21:04:14.090Z,1.00
2022-10-13T21:06:44.573Z,1.00
2022-10-13T21:09:13.845Z,1.00
2022-10-13T21:11:43.662Z,1.00
2022-10-13T21:14:12.401Z,1.00
2022-10-13T21:16:41.672Z,1.00
2022-10-13T21:19:10.854Z,1.00
2022-10-13T21:21:39.660Z,1.00
2022-10-13T21:24:11.489Z,1.00
2022-10-13T21:26:41.165Z,1.00
2022-10-13T21:29:15.314Z,1.00
2022-10-13T21:31:43.916Z,1.00
2022-10-13T21:34:13.780Z,1.00
2022-10-13T21:36:44.619Z,1.00
2022-10-13T21:39:16.559Z,1.00
2022-10-13T21:41:45.328Z,1.00
2022-10-13T21:44:15.396Z,1.00
2022-10-13T21:46:44.185Z,1.00
2022-10-13T21:49:12.749Z,1.00
2022-10-13T21:51:42.198Z,1.00
2022-10-13T21:54:13.395Z,1.00
2022-10-13T21:56:44.002Z,1.00
2022-10-13T21:59:13.991Z,1.00
2022-10-13T22:01:43.295Z,1.00
2022-10-13T22:04:15.219Z,1.00
2022-10-13T22:06:44.632Z,1.00
2022-10-13T22:09:13.569Z,1.00
2022-10-13T22:11:44.097Z,1.00
2022-10-13T22:14:13.325Z,1.00
2022-10-13T22:16:44.467Z,1.00
2022-10-13T22:19:13.085Z,1.00
2022-10-13T22:21:45.040Z,1.00
2022-10-13T22:24:16.340Z,1.00
2022-10-13T22:26:48.145Z,1.00
2022-10-13T22:29:19.427Z,1.00
2022-10-13T22:31:49.371Z,1.00
2022-10-13T22:34:19.056Z,1.00
2022-10-13T22:36:47.930Z,2.40
2022-10-13T22:39:16.879Z,1.00
2022-10-13T22:41:47.203Z,1.00
2022-10-13T22:44:16.156Z,1.00
2022-10-13T22:46:44.893Z,1.00
2022-10-13T22:49:15.402Z,1.00
2022-10-13T22:51:44.072Z,1.00
2022-10-13T22:54:14.140Z,1.00
2022-10-13T22:56:43.325Z,1.00
2022-10-13T22:59:14.311Z,1.00
2022-10-13T23:01:43.117Z,1.00
2022-10-13T23:04:12.002Z,1.00
2022-10-13T23:06:40.571Z,1.00
2022-10-13T23:09:12.103Z,1.00
2022-10-13T23:11:41.043Z,1.00
2022-10-13T23:14:13.954Z,1.00
2022-10-13T23:16:42.540Z,1.00
2022-10-13T23:19:11.424Z,1.00
2022-10-13T23:21:40.204Z,1.00
2022-10-13T23:24:09.497Z,1.00
2022-10-13T23:26:38.359Z,1.00
2022-10-13T23:29:07.272Z,1.00
2022-10-13T23:31:37.456Z,1.00
2022-10-13T23:34:06.093Z,1.00
2022-10-13T23:36:34.991Z,4.40
2022-10-13T23:39:06.008Z,7.00
2022-10-13T23:41:34.716Z,7.70
2022-10-13T23:44:03.820Z,11.30
2022-10-13T23:46:32.451Z,12.50
2022-10-13T23:49:02.678Z,14.40
2022-10-13T23:51:31.820Z,15.90
2022-10-13T23:54:01.169Z,15.10
2022-10-13T23:56:29.758Z,16.40
2022-10-13T23:58:58.518Z,16.70
